Time;durP1;ratioP1;P1;durP2;ratioP2;P2;SDS_P1;SDS_P2;PMS_P1;PMS_P2;Temp;Humidity;BMP_temperature;BMP_pressure;BME280_temperature;BME280_humidity;BME280_pressure;Samples;Min_cycle;Max_cycle;Signal;HPM_P1;HPM_P2
2021/01/21 00:01:40;;;;;;;97.18;41.30;;;;;;;0.48;86.08;97276.31;5070232;28;20052;-69
2021/01/21 00:04:06;;;;;;;89.70;38.75;;;;;;;0.51;85.67;97269.28;5071122;28;20127;-68
2021/01/21 00:06:33;;;;;;;90.47;40.25;;;;;;;0.54;85.86;97273.47;5070746;28;20075;-68
2021/01/21 00:08:59;;;;;;;87.45;40.08;;;;;;;0.48;85.65;97253.09;5069907;28;20064;-68
2021/01/21 00:11:25;;;;;;;83.85;35.60;;;;;;;0.60;85.59;97270.59;5069923;28;20052;-68
2021/01/21 00:13:51;;;;;;;85.38;38.65;;;;;;;0.49;85.43;97253.03;5085067;28;20375;-68
2021/01/21 00:16:17;;;;;;;84.78;36.45;;;;;;;0.67;85.08;97264.28;5091119;28;20063;-67
2021/01/21 00:18:43;;;;;;;80.47;36.63;;;;;;;0.66;84.91;97262.59;5090311;28;20048;-68
2021/01/21 00:21:09;;;;;;;83.78;36.78;;;;;;;0.62;84.67;97250.75;5085173;28;20077;-67
2021/01/21 00:23:35;;;;;;;81.50;36.78;;;;;;;0.55;85.13;97251.09;5070938;28;20543;-68
2021/01/21 00:26:01;;;;;;;81.40;35.53;;;;;;;0.56;85.69;97255.34;5071431;28;20044;-67
2021/01/21 00:28:27;;;;;;;79.85;34.60;;;;;;;0.49;86.35;97250.44;5072033;28;20047;-67
2021/01/21 00:30:53;;;;;;;74.07;33.90;;;;;;;0.47;86.51;97254.84;5070019;28;20051;-67
2021/01/21 00:33:19;;;;;;;78.40;33.10;;;;;;;0.49;86.32;97253.03;5070624;28;20398;-67
2021/01/21 00:35:45;;;;;;;79.03;33.00;;;;;;;0.63;85.46;97261.91;5069941;28;20052;-68
2021/01/21 00:38:11;;;;;;;79.15;34.45;;;;;;;0.71;85.31;97259.81;5069286;28;20106;-67
2021/01/21 00:40:37;;;;;;;67.30;30.23;;;;;;;0.72;85.10;97243.44;5070642;28;20045;-70
2021/01/21 00:43:03;;;;;;;66.20;29.13;;;;;;;0.91;84.09;97253.75;5070166;28;20056;-67
2021/01/21 00:45:29;;;;;;;69.10;31.33;;;;;;;0.71;84.55;97237.44;5076750;28;20044;-67
2021/01/21 00:47:55;;;;;;;76.05;32.90;;;;;;;0.85;84.65;97256.59;5091124;28;20046;-68
2021/01/21 00:50:21;;;;;;;71.28;31.55;;;;;;;0.89;84.55;97252.97;5094480;28;20441;-67
2021/01/21 00:52:48;;;;;;;67.80;29.85;;;;;;;0.82;84.37;97252.44;5093183;28;20391;-67
2021/01/21 00:55:14;;;;;;;74.40;31.98;;;;;;;0.74;84.91;97248.53;5094135;28;20131;-67
2021/01/21 00:57:40;;;;;;;72.72;30.67;;;;;;;0.77;84.78;97253.53;5094099;28;20101;-70
2021/01/21 01:00:11;;;;;;;68.03;30.40;;;;;;;0.75;84.81;97255.38;5092596;28;20436;-67
2021/01/21 01:02:37;;;;;;;70.60;32.28;;;;;;;0.80;84.89;97245.66;5094287;28;20198;-67
2021/01/21 01:05:06;;;;;;;71.97;30.58;;;;;;;0.92;84.32;97252.03;5093418;28;20048;-67
2021/01/21 01:07:32;;;;;;;67.65;28.08;;;;;;;0.94;84.46;97251.03;5094206;28;20050;-67
2021/01/21 01:09:58;;;;;;;68.97;28.98;;;;;;;0.82;84.48;97234.38;5093573;28;20052;-67
2021/01/21 01:12:24;;;;;;;77.07;29.95;;;;;;;0.68;84.81;97224.69;5084567;28;20381;-68
2021/01/21 01:14:50;;;;;;;75.53;31.67;;;;;;;0.64;85.23;97235.22;5072922;28;20044;-67
2021/01/21 01:17:16;;;;;;;87.60;34.08;;;;;;;0.63;85.38;97236.13;5073996;28;20049;-68
2021/01/21 01:19:42;;;;;;;89.60;36.85;;;;;;;0.59;85.02;97214.78;5072085;28;20059;-70
2021/01/21 01:22:08;;;;;;;86.75;37.13;;;;;;;0.43;85.57;97214.63;5073122;28;20055;-67
2021/01/21 01:24:34;;;;;;;76.50;34.40;;;;;;;0.54;85.38;97229.63;5073327;28;20479;-67
2021/01/21 01:27:00;;;;;;;82.65;34.92;;;;;;;0.39;85.67;97207.09;5073798;28;20090;-68
2021/01/21 01:29:27;;;;;;;71.60;31.88;;;;;;;0.57;85.26;97228.66;5073640;28;20505;-67
2021/01/21 01:31:53;;;;;;;68.95;30.90;;;;;;;0.55;85.45;97226.16;5079014;28;20060;-67
2021/01/21 01:34:19;;;;;;;67.20;31.35;;;;;;;0.51;84.95;97209.13;5094129;28;20040;-67
2021/01/21 01:36:44;;;;;;;63.42;29.75;;;;;;;0.48;85.36;97201.53;5093073;28;20396;-70
2021/01/21 01:39:10;;;;;;;61.67;28.23;;;;;;;0.44;85.69;97207.75;5093002;28;20058;-67
2021/01/21 01:41:36;;;;;;;63.92;28.23;;;;;;;0.43;86.51;97216.38;5093656;28;20040;-67
2021/01/21 01:44:02;;;;;;;59.03;27.60;;;;;;;0.48;86.48;97223.00;5092614;28;20105;-67
2021/01/21 01:46:31;;;;;;;57.42;28.42;;;;;;;0.68;85.73;97219.53;5084409;28;20097;-67
2021/01/21 01:48:59;;;;;;;54.75;26.17;;;;;;;0.59;85.28;97199.31;5071050;28;20048;-68
2021/01/21 01:51:26;;;;;;;59.42;26.60;;;;;;;0.69;85.35;97200.56;5071782;28;20106;-67
2021/01/21 01:53:52;;;;;;;56.50;26.13;;;;;;;0.83;84.83;97211.97;5071760;28;20443;-67
2021/01/21 01:56:18;;;;;;;61.97;25.60;;;;;;;0.81;84.72;97213.81;5071748;28;20052;-67
2021/01/21 01:58:44;;;;;;;55.88;25.10;;;;;;;0.73;84.87;97193.53;5072641;28;20506;-70
2021/01/21 02:01:11;;;;;;;53.10;24.70;;;;;;;0.66;84.90;97184.38;5080629;28;20048;-67
2021/01/21 02:03:38;;;;;;;57.78;27.42;;;;;;;0.75;85.35;97211.50;5093323;28;20055;-67
2021/01/21 02:06:05;;;;;;;52.55;26.27;;;;;;;0.65;85.33;97209.34;5090539;28;20048;-67
2021/01/21 02:08:32;;;;;;;57.97;26.88;;;;;;;0.65;85.15;97204.19;5080966;28;20044;-67
2021/01/21 02:11:04;;;;;;;56.45;26.38;;;;;;;0.60;85.79;97213.03;5071830;28;20040;-68
2021/01/21 02:13:54;;;;;;;57.40;27.55;;;;;;;0.68;84.98;97214.38;5072698;28;20056;-67
2021/01/21 02:16:53;;;;;;;67.07;30.73;;;;;;;0.68;84.54;97211.78;5071458;28;20059;-67
2021/01/21 02:20:31;;;;;;;57.80;27.50;;;;;;;0.40;85.28;97206.22;5072188;28;20469;-67
2021/01/21 02:23:31;;;;;;;66.35;31.17;;;;;;;0.41;85.29;97218.19;5031245;28;20045;-67
2021/01/21 02:26:08;;;;;;;62.63;30.30;;;;;;;0.28;85.63;97197.28;5070430;28;20048;-68
2021/01/21 02:29:13;;;;;;;60.38;28.73;;;;;;;0.19;85.97;97193.38;5085301;28;20051;-67
2021/01/21 02:31:48;;;;;;;62.80;27.42;;;;;;;0.12;86.77;97191.97;5091346;28;20044;-67
2021/01/21 02:34:22;;;;;;;65.93;28.75;;;;;;;0.28;86.70;97194.69;5092174;28;20131;-67
2021/01/21 02:36:55;;;;;;;60.08;27.27;;;;;;;0.33;86.62;97203.91;5090492;28;20114;-70
2021/01/21 02:39:23;;;;;;;66.45;27.77;;;;;;;0.35;86.62;97201.25;5092214;28;20055;-67
2021/01/21 02:41:49;;;;;;;56.38;25.88;;;;;;;0.40;86.48;97199.28;5088956;28;20522;-70
2021/01/21 02:44:15;;;;;;;58.22;26.25;;;;;;;0.42;86.40;97201.81;5091901;28;20051;-67
2021/01/21 02:46:44;;;;;;;55.50;26.33;;;;;;;0.50;86.07;97198.00;5091968;28;20543;-68
2021/01/21 02:49:10;;;;;;;56.63;27.58;;;;;;;0.47;86.52;97194.72;5073228;28;20626;-67
2021/01/21 02:52:01;;;;;;;63.78;28.55;;;;;;;0.52;85.81;97193.59;5071884;28;20048;-68
2021/01/21 02:54:56;;;;;;;60.80;26.80;;;;;;;0.40;86.09;97185.59;5072011;28;20044;-67
2021/01/21 02:57:25;;;;;;;56.03;26.98;;;;;;;0.46;86.28;97199.03;5070585;28;20051;-66
2021/01/21 02:59:54;;;;;;;59.67;26.70;;;;;;;0.44;86.51;97197.44;5070812;28;20491;-72
2021/01/21 03:02:24;;;;;;;68.28;29.48;;;;;;;0.32;86.65;97199.63;5070784;28;20087;-66
2021/01/21 03:04:56;;;;;;;61.97;28.25;;;;;;;0.31;86.57;97202.28;5070118;28;20094;-72
2021/01/21 03:07:23;;;;;;;60.05;26.45;;;;;;;0.30;86.92;97203.22;5078011;28;20048;-68
2021/01/21 03:09:49;;;;;;;57.13;28.77;;;;;;;0.30;86.97;97201.47;5090294;28;20040;-70
2021/01/21 03:12:21;;;;;;;56.83;26.30;;;;;;;0.42;87.11;97201.81;5091434;28;20055;-68
2021/01/21 03:14:50;;;;;;;54.15;25.88;;;;;;;0.36;86.82;97177.16;5092026;28;20150;-68
2021/01/21 03:17:18;;;;;;;54.65;25.30;;;;;;;0.45;87.03;97201.66;5091474;28;20061;-68
2021/01/21 03:19:44;;;;;;;56.65;26.30;;;;;;;0.39;86.66;97178.75;5091802;28;20441;-68
2021/01/21 03:22:10;;;;;;;58.25;26.92;;;;;;;0.48;86.67;97204.09;5089130;28;20047;-68
2021/01/21 03:24:36;;;;;;;57.05;27.25;;;;;;;0.44;86.22;97202.59;5091698;28;20044;-68
2021/01/21 03:27:02;;;;;;;56.70;25.45;;;;;;;0.49;86.84;97201.47;5083210;28;20106;-68
2021/01/21 03:29:28;;;;;;;55.10;25.55;;;;;;;0.30;86.59;97178.25;5071633;28;20431;-68
2021/01/21 03:31:54;;;;;;;57.67;26.60;;;;;;;0.30;88.01;97200.63;5070490;28;20075;-71
2021/01/21 03:34:21;;;;;;;58.35;27.10;;;;;;;0.25;87.98;97190.53;5079819;28;20483;-68
2021/01/21 03:36:47;;;;;;;57.08;27.58;;;;;;;0.20;87.32;97181.31;5091215;28;20067;-69
2021/01/21 03:39:13;;;;;;;67.47;30.08;;;;;;;0.21;86.73;97193.31;5090224;28;20193;-68
2021/01/21 03:41:39;;;;;;;69.38;31.63;;;;;;;0.13;86.89;97188.50;5091682;28;20400;-68
2021/01/21 03:44:05;;;;;;;76.47;33.40;;;;;;;0.08;87.09;97206.72;5089348;28;20127;-68
2021/01/21 03:46:31;;;;;;;69.38;32.47;;;;;;;-0.05;87.51;97208.16;5085522;28;20524;-70
2021/01/21 03:48:57;;;;;;;67.35;32.33;;;;;;;-0.25;88.25;97193.56;5070460;28;20044;-68
2021/01/21 03:51:23;;;;;;;77.97;33.92;;;;;;;-0.18;87.94;97207.84;5069864;28;20124;-68
2021/01/21 03:53:49;;;;;;;73.28;33.50;;;;;;;-0.22;87.81;97196.00;5071144;28;20496;-68
2021/01/21 03:56:15;;;;;;;66.82;31.17;;;;;;;-0.19;87.52;97195.88;5070307;28;20123;-68
2021/01/21 03:58:41;;;;;;;61.75;31.55;;;;;;;0.10;86.93;97207.50;5071030;28;20044;-68
2021/01/21 04:01:07;;;;;;;68.35;30.92;;;;;;;0.10;86.15;97197.19;5075719;28;20050;-68
2021/01/21 04:03:33;;;;;;;58.00;29.08;;;;;;;0.13;86.87;97202.19;5079923;28;20201;-68
2021/01/21 04:06:03;;;;;;;63.00;30.58;;;;;;;0.13;86.87;97197.06;5069936;28;20111;-68
2021/01/21 04:08:29;;;;;;;66.55;31.70;;;;;;;0.15;86.74;97194.41;5071103;28;20048;-68
2021/01/21 04:10:55;;;;;;;61.15;30.00;;;;;;;0.02;87.37;97195.84;5069566;28;20506;-70
2021/01/21 04:13:21;;;;;;;57.90;28.27;;;;;;;0.01;87.41;97171.00;5070309;28;20543;-67
2021/01/21 04:15:47;;;;;;;54.83;28.40;;;;;;;0.10;87.79;97184.31;5075621;28;20127;-67
2021/01/21 04:18:14;;;;;;;67.30;30.83;;;;;;;0.15;87.14;97184.94;5090233;28;20040;-66
2021/01/21 04:20:41;;;;;;;66.07;31.65;;;;;;;0.15;87.08;97186.69;5073356;28;20547;-66
2021/01/21 04:23:07;;;;;;;61.92;29.48;;;;;;;0.22;86.60;97174.34;5072569;28;20128;-66
2021/01/21 04:25:33;;;;;;;65.22;29.20;;;;;;;0.17;86.84;97174.53;5074580;28;20044;-65
2021/01/21 04:27:59;;;;;;;57.80;28.83;;;;;;;-0.02;87.44;97156.50;5073456;28;20044;-66
2021/01/21 04:30:26;;;;;;;57.20;28.80;;;;;;;0.13;87.73;97171.28;5074810;28;20498;-66
2021/01/21 04:32:52;;;;;;;62.08;29.00;;;;;;;0.14;86.93;97177.25;5074721;28;20044;-67
2021/01/21 04:35:19;;;;;;;64.05;30.88;;;;;;;0.07;87.44;97176.69;5073855;28;20614;-67
2021/01/21 04:37:45;;;;;;;56.40;28.88;;;;;;;-0.15;87.63;97151.06;5074493;28;20040;-67
2021/01/21 04:40:12;;;;;;;59.28;30.75;;;;;;;-0.17;88.19;97170.91;5072086;28;20116;-68
2021/01/21 04:42:38;;;;;;;62.70;29.92;;;;;;;-0.22;88.23;97153.06;5075679;28;20040;-67
2021/01/21 04:45:06;;;;;;;62.63;31.00;;;;;;;-0.11;87.56;97172.34;5090763;28;20047;-68
2021/01/21 04:47:33;;;;;;;58.30;29.55;;;;;;;-0.07;87.89;97177.31;5094369;28;20040;-68
2021/01/21 04:50:00;;;;;;;56.60;27.58;;;;;;;-0.10;87.93;97167.13;5093789;28;20048;-70
2021/01/21 04:52:28;;;;;;;62.40;28.75;;;;;;;-0.08;87.64;97173.06;5092445;28;20044;-67
2021/01/21 04:55:08;;;;;;;58.42;28.35;;;;;;;0.01;87.35;97155.53;5094536;28;20402;-68
2021/01/21 04:57:45;;;;;;;63.00;30.55;;;;;;;0.04;86.26;97150.25;5082060;28;20052;-68
2021/01/21 05:00:12;;;;;;;54.92;28.05;;;;;;;-0.09;86.84;97158.50;5073216;28;20049;-66
2021/01/21 05:02:40;;;;;;;58.72;27.88;;;;;;;-0.13;87.38;97163.88;5086772;28;20081;-67
2021/01/21 05:05:09;;;;;;;51.47;26.15;;;;;;;-0.27;88.52;97149.84;5092171;28;20052;-68
2021/01/21 05:07:41;;;;;;;49.42;25.17;;;;;;;-0.30;88.28;97156.88;5093151;28;20098;-68
2021/01/21 05:10:09;;;;;;;48.93;24.67;;;;;;;-0.07;88.77;97169.56;5093259;28;20101;-68
2021/01/21 05:12:36;;;;;;;50.38;24.80;;;;;;;0.02;87.45;97155.47;5092820;28;20047;-68
2021/01/21 05:15:03;;;;;;;53.38;27.63;;;;;;;0.13;87.09;97175.59;5079217;28;20071;-71
2021/01/21 05:17:29;;;;;;;59.42;30.52;;;;;;;0.07;86.62;97181.84;5087594;28;20059;-68
2021/01/21 05:19:56;;;;;;;57.17;28.55;;;;;;;-0.09;86.89;97161.09;5093279;28;20697;-71
2021/01/21 05:22:23;;;;;;;54.92;27.55;;;;;;;-0.17;86.68;97152.00;5079005;28;20055;-70
2021/01/21 05:24:49;;;;;;;53.67;26.92;;;;;;;-0.18;87.22;97161.50;5091242;28;20047;-69
2021/01/21 05:27:20;;;;;;;53.45;27.50;;;;;;;-0.17;87.40;97168.31;5072690;28;20492;-70
2021/01/21 05:29:48;;;;;;;52.65;25.83;;;;;;;-0.29;87.87;97153.41;5073363;28;20048;-70
2021/01/21 05:32:17;;;;;;;51.97;26.80;;;;;;;-0.29;88.48;97148.25;5077943;28;20036;-70
2021/01/21 05:34:45;;;;;;;56.58;29.17;;;;;;;-0.14;86.58;97147.59;5093594;28;20105;-69
2021/01/21 05:37:14;;;;;;;60.92;27.88;;;;;;;-0.07;86.68;97172.16;5078643;28;20040;-70
2021/01/21 05:39:44;;;;;;;57.60;27.90;;;;;;;-0.26;87.57;97161.81;5073040;28;20056;-69
2021/01/21 05:42:12;;;;;;;59.08;29.40;;;;;;;-0.26;87.69;97158.41;5071485;28;20064;-70
2021/01/21 05:44:39;;;;;;;54.22;26.80;;;;;;;-0.11;87.78;97157.75;5073517;28;20045;-69
2021/01/21 05:47:09;;;;;;;53.38;25.55;;;;;;;-0.08;87.07;97152.47;5071269;28;20048;-70
2021/01/21 05:49:37;;;;;;;61.65;29.70;;;;;;;-0.04;86.38;97161.72;5072879;28;20377;-67
2021/01/21 05:52:04;;;;;;;57.97;28.05;;;;;;;-0.19;87.19;97172.69;5072936;28;20036;-69
2021/01/21 05:54:31;;;;;;;52.05;27.17;;;;;;;-0.43;88.07;97149.66;5073233;28;20373;-67
2021/01/21 05:56:59;;;;;;;59.35;28.83;;;;;;;-0.37;88.52;97172.56;5076309;28;20421;-68
2021/01/21 05:59:28;;;;;;;59.88;28.58;;;;;;;-0.45;88.10;97155.78;5071434;28;20045;-67
2021/01/21 06:01:56;;;;;;;60.85;29.13;;;;;;;-0.25;87.67;97178.97;5072861;28;20056;-67
2021/01/21 06:04:26;;;;;;;56.20;28.25;;;;;;;-0.29;87.55;97179.16;5071779;28;20068;-67
2021/01/21 06:06:54;;;;;;;64.13;29.75;;;;;;;-0.26;87.77;97172.13;5072899;28;20048;-68
2021/01/21 06:09:28;;;;;;;53.92;27.15;;;;;;;-0.25;87.62;97173.81;5072372;28;20063;-66
2021/01/21 06:12:04;;;;;;;66.57;30.67;;;;;;;-0.26;88.02;97179.03;5076984;28;20056;-67
2021/01/21 06:14:30;;;;;;;58.08;28.17;;;;;;;-0.35;88.19;97167.38;5079606;28;20070;-67
2021/01/21 06:16:57;;;;;;;63.35;31.63;;;;;;;-0.47;88.42;97158.41;5072751;28;20040;-68
2021/01/21 06:19:24;;;;;;;61.15;30.35;;;;;;;-0.55;88.42;97165.63;5089402;28;20208;-67
2021/01/21 06:21:56;;;;;;;56.20;28.92;;;;;;;-0.54;88.72;97167.31;5093119;28;20403;-67
2021/01/21 06:24:29;;;;;;;58.20;29.50;;;;;;;-0.48;89.08;97190.22;5076162;28;20033;-68
2021/01/21 06:26:59;;;;;;;61.97;29.25;;;;;;;-0.49;89.28;97183.41;5081236;28;20077;-70
2021/01/21 06:29:29;;;;;;;58.35;29.63;;;;;;;-0.42;88.65;97173.66;5070264;28;20041;-68
2021/01/21 06:32:02;;;;;;;60.50;29.92;;;;;;;-0.35;88.45;97189.72;5087291;28;20051;-69
2021/01/21 06:34:35;;;;;;;61.92;28.75;;;;;;;-0.46;88.66;97179.88;5070341;28;20704;-68
2021/01/21 06:37:12;;;;;;;56.95;28.05;;;;;;;-0.31;88.75;97188.66;5082592;28;20044;-69
2021/01/21 06:39:58;;;;;;;59.15;27.58;;;;;;;-0.28;88.58;97189.38;5078946;28;20053;-68
2021/01/21 06:42:33;;;;;;;64.63;28.25;;;;;;;-0.25;88.27;97185.81;5070229;28;20052;-69
2021/01/21 06:44:59;;;;;;;61.22;30.23;;;;;;;-0.25;88.12;97181.53;5073940;28;20049;-70
2021/01/21 06:47:25;;;;;;;60.40;29.13;;;;;;;-0.21;87.93;97183.06;5071786;28;20063;-69
2021/01/21 06:49:57;;;;;;;66.88;29.80;;;;;;;-0.17;87.79;97188.94;5076725;28;20048;-69
2021/01/21 06:52:31;;;;;;;57.47;29.02;;;;;;;-0.14;87.66;97178.50;5072481;28;20468;-69
2021/01/21 06:55:00;;;;;;;56.60;28.23;;;;;;;-0.01;86.80;97187.34;5086267;28;20048;-68
2021/01/21 06:57:36;;;;;;;56.67;28.13;;;;;;;0.04;87.17;97196.63;5067492;28;20043;-68
2021/01/21 07:00:08;;;;;;;60.10;29.05;;;;;;;0.15;86.78;97200.38;5090633;28;20054;-68
2021/01/21 07:02:48;;;;;;;57.58;28.58;;;;;;;0.08;86.71;97186.13;5087157;28;20114;-68
2021/01/21 07:05:20;;;;;;;62.75;31.80;;;;;;;0.29;86.44;97197.19;5077604;28;20063;-69
2021/01/21 07:07:52;;;;;;;56.50;27.45;;;;;;;0.39;86.19;97205.38;5076959;28;20116;-68
2021/01/21 07:10:42;;;;;;;59.17;27.30;;;;;;;0.45;85.88;97199.94;5074534;28;20036;-68
2021/01/21 07:13:24;;;;;;;53.72;26.30;;;;;;;0.53;85.54;97186.72;5088124;28;20036;-70
2021/01/21 07:15:56;;;;;;;58.35;28.92;;;;;;;0.60;85.28;97193.22;5086668;28;20056;-69
2021/01/21 07:18:29;;;;;;;60.47;30.38;;;;;;;0.57;85.45;97185.63;5075740;28;20043;-68
2021/01/21 07:21:06;;;;;;;60.42;28.50;;;;;;;0.89;84.65;97199.63;5089919;28;20051;-68
2021/01/21 07:23:50;;;;;;;64.50;31.13;;;;;;;0.94;83.94;97189.09;5080689;28;20500;-68
2021/01/21 07:26:32;;;;;;;63.45;27.90;;;;;;;1.01;84.07;97195.63;5081243;28;20466;-71
2021/01/21 07:28:58;;;;;;;58.13;29.52;;;;;;;1.00;83.28;97170.72;5057150;28;20123;-68
2021/01/21 07:31:25;;;;;;;67.35;30.38;;;;;;;0.95;82.95;97164.97;5075062;28;20454;-67
2021/01/21 07:34:35;;;;;;;62.47;29.98;;;;;;;1.00;83.27;97182.81;5089169;28;20082;-69
2021/01/21 07:37:24;;;;;;;72.47;33.67;;;;;;;1.05;82.80;97188.56;5074419;28;20033;-67
2021/01/21 07:40:04;;;;;;;77.20;34.88;;;;;;;1.18;82.38;97179.34;5071438;28;20056;-67
2021/01/21 07:42:33;;;;;;;79.03;39.08;;;;;;;1.13;82.44;97172.72;5070702;28;20382;-67
2021/01/21 07:45:06;;;;;;;85.60;39.30;;;;;;;1.19;82.37;97175.88;5069990;28;20044;-68
2021/01/21 07:47:34;;;;;;;75.65;36.08;;;;;;;1.21;82.46;97180.94;5088863;28;20068;-68
2021/01/21 07:50:39;;;;;;;82.97;39.47;;;;;;;1.19;82.38;97182.75;5091563;28;20101;-66
2021/01/21 07:53:17;;;;;;;104.47;43.72;;;;;;;1.23;81.71;97173.97;5091336;28;20067;-67
2021/01/21 07:55:44;;;;;;;98.13;46.05;;;;;;;1.22;81.91;97174.84;5090214;28;20060;-66
2021/01/21 07:58:35;;;;;;;113.03;48.35;;;;;;;1.32;80.98;97172.69;5092568;28;20486;-67
2021/01/21 08:01:10;;;;;;;100.45;45.15;;;;;;;1.48;80.76;97177.91;5073455;28;20056;-69
2021/01/21 08:03:42;;;;;;;92.47;42.03;;;;;;;1.57;80.09;97159.38;5074594;28;20128;-67
2021/01/21 08:06:16;;;;;;;105.28;46.30;;;;;;;1.76;79.25;97173.06;5076375;28;20040;-67
2021/01/21 08:08:45;;;;;;;86.13;37.97;;;;;;;1.82;79.85;97171.06;5075366;28;20044;-67
2021/01/21 08:11:22;;;;;;;88.38;40.00;;;;;;;1.99;79.10;97159.84;5073917;28;20578;-67
2021/01/21 08:13:56;;;;;;;84.20;36.42;;;;;;;2.12;78.27;97169.47;5092806;28;20044;-67
2021/01/21 08:16:22;;;;;;;85.32;38.97;;;;;;;2.18;78.37;97170.91;5084479;28;20391;-67
2021/01/21 08:18:49;;;;;;;85.60;36.65;;;;;;;2.36;77.75;97166.50;5074491;28;20101;-66
2021/01/21 08:21:22;;;;;;;77.20;34.35;;;;;;;2.33;77.65;97162.34;5074301;28;20387;-70
2021/01/21 08:23:59;;;;;;;86.85;40.90;;;;;;;2.45;77.29;97155.66;5074958;28;20044;-67
2021/01/21 08:26:28;;;;;;;84.13;38.65;;;;;;;2.74;76.00;97155.84;5075527;28;20041;-69
2021/01/21 08:28:55;;;;;;;88.22;36.88;;;;;;;2.84;76.23;97144.06;5076024;28;20118;-72
2021/01/21 08:31:48;;;;;;;79.93;37.08;;;;;;;3.35;73.83;97148.13;5090823;28;20040;-69
2021/01/21 08:34:23;;;;;;;88.90;39.58;;;;;;;3.69;72.65;97151.34;5080421;28;20377;-72
2021/01/21 08:37:01;;;;;;;83.93;38.90;;;;;;;3.94;71.59;97128.22;5073260;28;20113;-66
2021/01/21 08:39:27;;;;;;;83.10;40.85;;;;;;;4.60;69.05;97153.66;5073149;28;20052;-67
2021/01/21 08:41:53;;;;;;;88.15;40.65;;;;;;;4.65;68.37;97130.84;5074308;28;20048;-66
2021/01/21 08:44:20;;;;;;;95.45;42.78;;;;;;;4.73;67.85;97143.34;5072143;28;20319;-69
2021/01/21 08:47:00;;;;;;;84.43;41.92;;;;;;;4.44;68.98;97120.03;5073195;28;20044;-67
2021/01/21 08:49:26;;;;;;;96.28;43.10;;;;;;;4.25;70.26;97141.09;5073255;28;20052;-67
2021/01/21 08:52:10;;;;;;;93.95;43.60;;;;;;;4.48;69.05;97137.09;5090992;28;20487;-67
2021/01/21 08:54:36;;;;;;;81.60;39.38;;;;;;;5.06;67.42;97116.97;5092435;28;20067;-67
2021/01/21 08:57:10;;;;;;;79.38;38.85;;;;;;;5.46;66.46;97139.50;5080695;28;20511;-67
2021/01/21 08:59:41;;;;;;;86.40;40.42;;;;;;;5.14;67.68;97137.25;5078925;28;20040;-70
2021/01/21 09:02:10;;;;;;;84.70;41.08;;;;;;;5.60;65.68;97136.00;5087148;28;20066;-67
2021/01/21 09:04:38;;;;;;;91.28;41.50;;;;;;;5.78;64.53;97124.38;5091430;28;21049;-67
2021/01/21 09:07:06;;;;;;;90.80;42.20;;;;;;;6.06;64.17;97127.72;5079543;28;20052;-67
2021/01/21 09:09:41;;;;;;;77.47;37.55;;;;;;;6.28;63.35;97143.50;5071783;28;20055;-67
2021/01/21 09:12:17;;;;;;;79.60;37.85;;;;;;;6.75;61.33;97141.13;5072944;28;20064;-67
2021/01/21 09:14:59;;;;;;;83.65;39.53;;;;;;;6.90;60.08;97135.72;5072068;28;20044;-67
2021/01/21 09:17:25;;;;;;;83.45;39.20;;;;;;;7.06;60.17;97128.47;5074107;28;20067;-67
2021/01/21 09:19:51;;;;;;;75.20;36.00;;;;;;;7.09;60.48;97143.91;5072462;28;20388;-68
2021/01/21 09:22:22;;;;;;;74.78;36.33;;;;;;;7.21;60.33;97130.91;5073356;28;20070;-73
2021/01/21 09:25:14;;;;;;;78.32;38.28;;;;;;;8.30;56.11;97147.97;5074632;28;20534;-67
2021/01/21 09:27:51;;;;;;;;;;;;;;;8.58;55.57;97150.09;5088846;28;20048;-67
2021/01/21 09:30:18;;;;;;;77.15;38.15;;;;;;;9.11;53.77;97141.56;5093866;28;19927;-71
2021/01/21 09:32:44;;;;;;;73.30;37.80;;;;;;;9.76;51.95;97138.91;5091928;28;20052;-68
2021/01/21 09:35:18;;;;;;;67.13;35.08;;;;;;;10.35;49.80;97134.81;5077508;28;20102;-68
2021/01/21 09:37:48;;;;;;;74.35;36.88;;;;;;;9.99;50.47;97121.25;5080881;28;20119;-67
2021/01/21 09:40:24;;;;;;;67.70;34.53;;;;;;;10.55;49.67;97127.84;5075808;28;20048;-67
2021/01/21 09:42:52;;;;;;;70.45;37.83;;;;;;;10.92;48.77;97129.00;5087435;28;20055;-67
2021/01/21 09:45:19;;;;;;;68.10;36.28;;;;;;;11.20;47.65;97127.41;5092530;28;20052;-67
2021/01/21 09:47:45;;;;;;;64.30;33.92;;;;;;;11.36;46.88;97118.97;5074164;28;20090;-68
2021/01/21 09:50:12;;;;;;;65.68;34.60;;;;;;;11.41;47.16;97123.81;5078527;28;20127;-67
2021/01/21 09:52:39;;;;;;;64.57;34.08;;;;;;;11.26;47.63;97115.50;5088020;28;20046;-67
2021/01/21 09:55:06;;;;;;;52.70;28.88;;;;;;;11.10;48.43;97123.94;5073094;28;20135;-67
2021/01/21 09:57:33;;;;;;;60.40;32.28;;;;;;;10.88;48.00;97119.78;5079052;28;20119;-67
2021/01/21 09:59:59;;;;;;;58.85;32.28;;;;;;;10.57;49.59;97119.84;5092996;28;20052;-67
2021/01/21 10:02:25;;;;;;;61.00;33.30;;;;;;;10.56;49.44;97123.44;5091962;28;20102;-67
2021/01/21 10:04:52;;;;;;;59.47;32.50;;;;;;;9.00;53.79;97131.13;5081846;28;20041;-66
2021/01/21 10:07:18;;;;;;;67.50;35.05;;;;;;;8.18;55.96;97108.78;5073456;28;20065;-68
2021/01/21 10:09:44;;;;;;;62.95;33.45;;;;;;;7.78;57.52;97130.09;5079695;28;20912;-67
2021/01/21 10:12:10;;;;;;;68.05;36.85;;;;;;;8.14;56.67;97128.25;5093188;28;20063;-68
2021/01/21 10:14:37;;;;;;;73.30;36.75;;;;;;;8.44;55.66;97120.81;5092531;28;20047;-68
2021/01/21 10:17:07;;;;;;;77.07;38.63;;;;;;;8.41;56.08;97122.66;5093063;28;20067;-68
2021/01/21 10:19:33;;;;;;;77.50;39.47;;;;;;;7.91;57.26;97121.34;5086381;28;20045;-68
2021/01/21 10:22:05;;;;;;;72.68;36.03;;;;;;;7.10;59.78;97098.63;5092878;28;20040;-67
2021/01/21 10:24:32;;;;;;;72.32;36.90;;;;;;;6.83;61.56;97119.72;5091010;28;20097;-67
2021/01/21 10:26:58;;;;;;;74.78;36.80;;;;;;;6.26;63.31;97123.72;5091922;28;20040;-68
2021/01/21 10:29:25;;;;;;;77.43;37.90;;;;;;;6.17;63.77;97120.00;5076831;28;20365;-71
2021/01/21 10:31:51;;;;;;;71.95;33.75;;;;;;;5.93;64.58;97091.25;5072443;28;20081;-67
2021/01/21 10:34:17;;;;;;;79.63;37.78;;;;;;;6.22;63.22;97115.28;5071279;28;20041;-66
2021/01/21 10:36:44;;;;;;;74.63;36.75;;;;;;;6.54;62.35;97121.81;5053833;28;20041;-67
2021/01/21 10:39:10;;;;;;;76.63;35.88;;;;;;;6.51;63.18;97116.81;5072444;28;20587;-68
2021/01/21 10:41:35;;;;;;;77.20;36.60;;;;;;;6.86;61.96;97121.25;5090240;28;20055;-68
2021/01/21 10:44:02;;;;;;;64.88;32.15;;;;;;;6.80;62.21;97109.53;5092010;28;20518;-67
2021/01/21 10:46:28;;;;;;;79.22;35.83;;;;;;;7.24;60.53;97097.59;5090556;28;20068;-68
2021/01/21 10:48:54;;;;;;;76.45;34.70;;;;;;;7.29;60.88;97115.53;5092152;28;20123;-68
2021/01/21 10:51:20;;;;;;;73.57;33.53;;;;;;;7.70;59.22;97109.00;5075380;28;20060;-67
2021/01/21 10:53:46;;;;;;;81.22;34.08;;;;;;;8.08;57.84;97105.25;5091783;28;20039;-67
2021/01/21 10:56:17;;;;;;;64.90;30.88;;;;;;;8.28;57.44;97113.28;5092049;28;20048;-66
2021/01/21 10:58:44;;;;;;;62.00;29.90;;;;;;;8.60;56.55;97119.47;5091061;28;20044;-68
2021/01/21 11:01:10;;;;;;;62.50;29.98;;;;;;;8.09;57.28;97090.41;5073279;28;20048;-69
2021/01/21 11:03:36;;;;;;;56.03;27.63;;;;;;;8.78;56.13;97088.44;5071157;28;20472;-69
2021/01/21 11:06:03;;;;;;;57.33;27.30;;;;;;;9.10;55.29;97095.47;5071851;28;20431;-69
2021/01/21 11:08:28;;;;;;;45.85;22.25;;;;;;;8.73;56.19;97097.59;5071831;28;20074;-72
2021/01/21 11:10:54;;;;;;;45.65;21.33;;;;;;;9.35;53.64;97085.59;5087800;28;20048;-67
2021/01/21 11:13:21;;;;;;;42.28;19.23;;;;;;;8.95;54.88;97094.09;5089991;28;20087;-68
2021/01/21 11:15:48;;;;;;;38.55;18.88;;;;;;;9.86;52.02;97073.50;5071273;28;20048;-68
2021/01/21 11:18:15;;;;;;;34.88;16.33;;;;;;;9.36;53.60;97075.94;5078633;28;20151;-68
2021/01/21 11:20:41;;;;;;;28.48;15.07;;;;;;;9.91;52.35;97070.50;5090796;28;20052;-68
2021/01/21 11:23:09;;;;;;;28.98;13.15;;;;;;;10.15;51.52;97084.09;5089265;28;20053;-69
2021/01/21 11:25:35;;;;;;;17.58;7.82;;;;;;;9.27;53.51;97094.06;5071959;28;20053;-67
2021/01/21 11:28:02;;;;;;;13.00;5.93;;;;;;;8.99;55.08;97074.59;5070126;28;20052;-68
2021/01/21 11:30:30;;;;;;;10.38;5.97;;;;;;;9.66;52.38;97070.78;5083845;28;20044;-72
2021/01/21 11:32:56;;;;;;;14.07;6.13;;;;;;;9.79;52.59;97067.13;5091805;28;20040;-68
2021/01/21 11:35:22;;;;;;;10.45;5.30;;;;;;;9.90;52.20;97079.31;5089812;28;20265;-67
2021/01/21 11:37:48;;;;;;;14.65;5.50;;;;;;;9.83;51.77;97076.38;5090692;28;20115;-67